createdAt,value
2022-10-12T00:01:40.346Z,101792.50
2022-10-12T00:04:07.910Z,101799.56
2022-10-12T00:06:35.101Z,101799.94
2022-10-12T00:09:02.331Z,101804.72
2022-10-12T00:11:29.649Z,101803.41
2022-10-12T00:13:58.013Z,101801.97
2022-10-12T00:16:26.623Z,101796.41
2022-10-12T00:18:55.187Z,101800.06
2022-10-12T00:21:23.529Z,101803.97
2022-10-12T00:23:51.020Z,101793.53
2022-10-12T00:26:23.389Z,101793.09
2022-10-12T00:28:58.997Z,101802.31
2022-10-12T00:31:27.522Z,101799.59
2022-10-12T00:33:55.013Z,101802.34
2022-10-12T00:36:27.963Z,101797.78
2022-10-12T00:38:56.312Z,101802.88
2022-10-12T00:41:27.223Z,101797.34
2022-10-12T00:43:58.164Z,101792.81
2022-10-12T00:46:39.376Z,101794.44
2022-10-12T00:49:16.998Z,101799.16
2022-10-12T00:51:47.238Z,101795.47
2022-10-12T00:54:15.481Z,101796.00
2022-10-12T00:56:44.500Z,101799.28
2022-10-12T00:59:16.030Z,101802.81
2022-10-12T01:01:43.444Z,101793.78
2022-10-12T01:04:10.795Z,101798.31
2022-10-12T01:06:38.019Z,101798.81
2022-10-12T01:09:05.336Z,101800.59
2022-10-12T01:11:32.524Z,101796.94
2022-10-12T01:13:59.749Z,101790.44
2022-10-12T01:16:37.885Z,101788.63
2022-10-12T01:19:23.133Z,101791.78
2022-10-12T01:21:59.984Z,101790.47
2022-10-12T01:24:48.595Z,101791.56
2022-10-12T01:27:41.180Z,101789.03
2022-10-12T01:30:31.034Z,101786.53
2022-10-12T01:33:04.344Z,101784.78
2022-10-12T01:35:37.606Z,101779.03
2022-10-12T01:38:26.660Z,101789.69
2022-10-12T01:41:05.676Z,101787.47
2022-10-12T01:43:38.665Z,101784.69
2022-10-12T01:46:15.104Z,101777.91
2022-10-12T01:48:43.973Z,101777.91
2022-10-12T01:51:13.091Z,101776.13
2022-10-12T01:53:50.532Z,101780.19
2022-10-12T01:56:20.667Z,101781.09
2022-10-12T01:58:47.940Z,101785.03
2022-10-12T02:01:20.937Z,101783.16
2022-10-12T02:03:53.820Z,101784.28
2022-10-12T02:06:23.591Z,101774.53
2022-10-12T02:09:06.039Z,101773.69
2022-10-12T02:11:34.754Z,101770.41
2022-10-12T02:14:13.831Z,101774.22
2022-10-12T02:16:49.887Z,101772.56
2022-10-12T02:19:21.224Z,101772.88
2022-10-12T02:21:48.945Z,101771.28
2022-10-12T02:24:18.233Z,101766.53
2022-10-12T02:26:48.099Z,101768.41
2022-10-12T02:29:24.340Z,101765.81
2022-10-12T02:32:13.487Z,101756.41
2022-10-12T02:35:05.483Z,101745.84
2022-10-12T02:37:44.775Z,101752.19
2022-10-12T02:40:26.377Z,101735.66
2022-10-12T02:43:12.792Z,101752.28
2022-10-12T02:45:42.860Z,101740.28
2022-10-12T02:48:12.377Z,101737.13
2022-10-12T02:50:39.730Z,101736.00
2022-10-12T02:53:07.650Z,101739.16
2022-10-12T02:55:40.187Z,101736.19
2022-10-12T02:58:07.441Z,101738.88
2022-10-12T03:00:35.154Z,101739.03
2022-10-12T03:03:02.514Z,101737.38
2022-10-12T03:05:29.769Z,101736.44
2022-10-12T03:07:57.056Z,101736.84
2022-10-12T03:10:24.648Z,101736.66
2022-10-12T03:12:51.968Z,101737.19
2022-10-12T03:15:19.163Z,101733.19
2022-10-12T03:17:46.406Z,101729.81
2022-10-12T03:20:13.678Z,101735.25
2022-10-12T03:22:40.927Z,101733.69
2022-10-12T03:25:08.268Z,101732.78
2022-10-12T03:27:35.723Z,101732.25
2022-10-12T03:30:05.008Z,101732.53
2022-10-12T03:32:32.232Z,101735.94
2022-10-12T03:34:59.491Z,101730.19
2022-10-12T03:37:26.899Z,101731.41
2022-10-12T03:39:54.139Z,101729.63
2022-10-12T03:42:21.396Z,101729.72
2022-10-12T03:44:48.643Z,101734.09
2022-10-12T03:47:16.618Z,101735.66
2022-10-12T03:49:43.919Z,101723.13
2022-10-12T03:52:11.206Z,101733.19
2022-10-12T03:54:38.429Z,101740.25
2022-10-12T03:57:05.682Z,101731.34
2022-10-12T03:59:32.965Z,101732.34
2022-10-12T04:02:00.230Z,101735.94
2022-10-12T04:04:27.529Z,101738.25
2022-10-12T04:06:54.831Z,101730.63
2022-10-12T04:09:22.030Z,101728.16
2022-10-12T04:11:49.250Z,101732.38
2022-10-12T04:14:16.427Z,101733.19
2022-10-12T04:16:43.624Z,101733.38
2022-10-12T04:19:14.049Z,101738.09
2022-10-12T04:21:41.552Z,101731.34
2022-10-12T04:24:09.007Z,101739.44
2022-10-12T04:26:36.268Z,101739.56
2022-10-12T04:29:03.776Z,101741.47
2022-10-12T04:31:31.199Z,101743.13
2022-10-12T04:33:58.385Z,101753.91
2022-10-12T04:36:26.365Z,101761.91
2022-10-12T04:38:59.891Z,101758.97
2022-10-12T04:41:28.367Z,101757.34
2022-10-12T04:43:55.751Z,101750.63
2022-10-12T04:46:23.000Z,101743.25
2022-10-12T04:48:50.239Z,101739.84
2022-10-12T04:51:17.512Z,101752.97
2022-10-12T04:53:44.683Z,101745.91
2022-10-12T04:56:12.074Z,101739.63
2022-10-12T04:58:39.373Z,101745.06
2022-10-12T05:01:06.842Z,101738.91
2022-10-12T05:03:38.207Z,101740.28
2022-10-12T05:06:08.333Z,101729.72
2022-10-12T05:08:35.686Z,101733.00
2022-10-12T05:11:03.080Z,101736.47
2022-10-12T05:13:30.518Z,101734.00
2022-10-12T05:15:58.128Z,101732.38
2022-10-12T05:18:25.455Z,101737.38
2022-10-12T05:20:56.768Z,101735.25
2022-10-12T05:23:36.498Z,101738.94
2022-10-12T05:26:09.830Z,101732.78
2022-10-12T05:28:43.083Z,101744.78
2022-10-12T05:31:11.144Z,101746.19
2022-10-12T05:33:45.348Z,101749.88
2022-10-12T05:36:12.783Z,101745.50
2022-10-12T05:38:44.048Z,101750.94
2022-10-12T05:41:14.565Z,101750.50
2022-10-12T05:43:47.686Z,101748.22
2022-10-12T05:46:51.826Z,101743.03
2022-10-12T05:49:19.650Z,101748.56
2022-10-12T05:51:46.961Z,101749.88
2022-10-12T05:54:14.956Z,101741.69
2022-10-12T05:56:45.616Z,101742.31
2022-10-12T05:59:13.257Z,101737.59
2022-10-12T06:01:41.072Z,101731.44
2022-10-12T06:04:08.678Z,101733.19
2022-10-12T06:06:36.041Z,101748.06
2022-10-12T06:09:03.389Z,101749.50
2022-10-12T06:11:34.035Z,101740.88
2022-10-12T06:14:03.943Z,101739.53
2022-10-12T06:16:31.288Z,101743.13
2022-10-12T06:18:58.577Z,101742.50
2022-10-12T06:21:33.611Z,101743.56
2022-10-12T06:24:01.988Z,101742.41
2022-10-12T06:26:32.291Z,101755.03
2022-10-12T06:29:00.833Z,101748.06
2022-10-12T06:31:29.107Z,101759.00
2022-10-12T06:33:56.418Z,101762.09
2022-10-12T06:36:27.572Z,101767.09
2022-10-12T06:38:55.315Z,101771.59
2022-10-12T06:41:22.677Z,101769.25
2022-10-12T06:43:49.876Z,101770.50
2022-10-12T06:46:17.338Z,101775.63
2022-10-12T06:48:48.530Z,101782.31
2022-10-12T06:51:16.304Z,101781.88
2022-10-12T06:53:44.566Z,101780.50
2022-10-12T06:56:12.443Z,101777.97
2022-10-12T06:58:40.151Z,101781.78
2022-10-12T07:01:10.339Z,101778.09
2022-10-12T07:03:37.765Z,101786.81
2022-10-12T07:06:09.638Z,101790.09
2022-10-12T07:08:37.579Z,101782.31
2022-10-12T07:11:06.765Z,101782.78
2022-10-12T07:13:34.269Z,101777.19
2022-10-12T07:16:01.884Z,101776.75
2022-10-12T07:18:29.221Z,101787.69
2022-10-12T07:20:58.564Z,101790.41
2022-10-12T07:23:26.764Z,101782.59
2022-10-12T07:25:54.208Z,101782.88
2022-10-12T07:28:22.351Z,101794.09
2022-10-12T07:30:49.820Z,101794.91
2022-10-12T07:33:17.234Z,101794.38
2022-10-12T07:36:12.851Z,101800.84
2022-10-12T07:38:43.955Z,101804.03
2022-10-12T07:41:12.100Z,101802.41
2022-10-12T07:43:39.899Z,101808.09
2022-10-12T07:46:07.479Z,101811.84
2022-10-12T07:48:35.098Z,101805.88
2022-10-12T07:51:06.749Z,101801.88
2022-10-12T07:53:34.946Z,101813.88
2022-10-12T07:56:03.728Z,101809.19
2022-10-12T07:58:31.295Z,101815.31
2022-10-12T08:01:06.370Z,101815.09
2022-10-12T08:03:33.845Z,101815.28
2022-10-12T08:06:09.007Z,101810.75
2022-10-12T08:08:36.427Z,101817.63
2022-10-12T08:11:04.485Z,101827.31
2022-10-12T08:13:32.199Z,101825.03
2022-10-12T08:16:00.497Z,101827.09
2022-10-12T08:18:27.823Z,101832.22
2022-10-12T08:20:56.042Z,101818.34
2022-10-12T08:23:23.556Z,101819.19
2022-10-12T08:25:55.271Z,101816.72
2022-10-12T08:28:23.019Z,101815.47
2022-10-12T08:30:51.175Z,101820.94
2022-10-12T08:33:19.338Z,101816.78
2022-10-12T08:35:47.833Z,101814.50
2022-10-12T08:38:15.745Z,101820.22
2022-10-12T08:40:52.228Z,101819.84
2022-10-12T08:43:30.655Z,101832.16
2022-10-12T08:46:00.729Z,101825.19
2022-10-12T08:48:50.690Z,101820.41
2022-10-12T08:51:22.097Z,101817.78
2022-10-12T08:54:12.041Z,101818.97
2022-10-12T08:56:41.218Z,101831.19
2022-10-12T08:59:16.365Z,101826.53
2022-10-12T09:01:54.508Z,101835.25
2022-10-12T09:04:59.473Z,101833.78
2022-10-12T09:07:29.643Z,101825.00
2022-10-12T09:10:09.856Z,101819.47
2022-10-12T09:12:50.379Z,101821.13
2022-10-12T09:15:25.064Z,101819.22
2022-10-12T09:17:54.301Z,101813.91
2022-10-12T09:20:23.799Z,101821.56
2022-10-12T09:22:54.118Z,101816.69
2022-10-12T09:25:26.752Z,101813.72
2022-10-12T09:27:54.631Z,101813.31
2022-10-12T09:30:21.933Z,101810.59
2022-10-12T09:32:55.696Z,101804.41
2022-10-12T09:35:23.079Z,101813.22
2022-10-12T09:37:52.601Z,101804.91
2022-10-12T09:40:26.577Z,101803.16
2022-10-12T09:42:54.731Z,101801.47
2022-10-12T09:45:22.574Z,101800.59
2022-10-12T09:48:12.646Z,101795.28
2022-10-12T09:50:47.761Z,101784.81
2022-10-12T09:53:31.933Z,101788.34
2022-10-12T09:56:14.586Z,101782.13
2022-10-12T09:58:51.360Z,101789.84
2022-10-12T10:01:21.774Z,101784.78
2022-10-12T10:04:10.160Z,101787.25
2022-10-12T10:06:39.737Z,101786.13
2022-10-12T10:09:14.168Z,101786.91
2022-10-12T10:11:41.629Z,101775.50
2022-10-12T10:14:13.752Z,101770.75
2022-10-12T10:16:49.647Z,101771.38
2022-10-12T10:19:27.031Z,101772.72
2022-10-12T10:21:55.027Z,101770.09
2022-10-12T10:24:26.986Z,101770.34
2022-10-12T10:27:02.002Z,101764.91
2022-10-12T10:29:32.472Z,101769.19
2022-10-12T10:32:24.391Z,101760.63
2022-10-12T10:35:06.852Z,101761.72
2022-10-12T10:37:35.935Z,101767.78
2022-10-12T10:40:04.548Z,101763.00
2022-10-12T10:42:33.729Z,101769.91
2022-10-12T10:45:07.313Z,101762.53
2022-10-12T10:47:43.253Z,101759.25
2022-10-12T10:50:39.693Z,101756.97
2022-10-12T10:53:17.260Z,101756.19
2022-10-12T10:56:01.881Z,101758.09
2022-10-12T10:58:45.301Z,101756.72
2022-10-12T11:01:24.830Z,101764.66
2022-10-12T11:04:04.782Z,101757.78
2022-10-12T11:06:41.095Z,101758.16
2022-10-12T11:09:14.943Z,101755.47
2022-10-12T11:11:43.662Z,101761.34
2022-10-12T11:14:20.205Z,101766.84
2022-10-12T11:16:51.572Z,101767.25
2022-10-12T11:19:36.701Z,101761.38
2022-10-12T11:22:09.061Z,101754.09
2022-10-12T11:25:20.785Z,101752.06
2022-10-12T11:27:51.433Z,101755.81
2022-10-12T11:30:24.070Z,101743.06
2022-10-12T11:33:04.855Z,101735.19
2022-10-12T11:35:36.324Z,101740.53
2022-10-12T11:38:25.325Z,101742.66
2022-10-12T11:41:34.571Z,101729.28
2022-10-12T11:44:12.114Z,101723.94
2022-10-12T11:47:27.433Z,101721.72
2022-10-12T11:50:04.545Z,101712.53
2022-10-12T11:52:38.591Z,101714.19
2022-10-12T11:55:24.049Z,101708.25
2022-10-12T11:57:51.570Z,101707.03
2022-10-12T12:00:40.363Z,101705.44
2022-10-12T12:03:32.752Z,101703.06
2022-10-12T12:06:31.223Z,101705.09
2022-10-12T12:09:07.003Z,101697.69
2022-10-12T12:11:34.896Z,101689.97
2022-10-12T12:14:21.125Z,101689.22
2022-10-12T12:16:49.709Z,101683.41
2022-10-12T12:19:37.326Z,101667.00
2022-10-12T12:22:24.752Z,101663.75
2022-10-12T12:24:51.911Z,101659.03
2022-10-12T12:27:32.786Z,101655.03
2022-10-12T12:30:02.137Z,101652.56
2022-10-12T12:33:01.881Z,101650.47
2022-10-12T12:35:51.215Z,101654.09
2022-10-12T12:38:24.843Z,101667.44
2022-10-12T12:41:16.214Z,101655.06
2022-10-12T12:44:01.393Z,101656.44
2022-10-12T12:47:08.481Z,101655.59
2022-10-12T12:49:42.317Z,101655.50
2022-10-12T12:52:12.323Z,101656.19
2022-10-12T12:55:01.690Z,101662.34
2022-10-12T12:57:35.129Z,101645.94
2022-10-12T13:00:13.830Z,101649.44
2022-10-12T13:03:00.196Z,101645.19
2022-10-12T13:05:51.985Z,101634.63
2022-10-12T13:08:43.384Z,101631.16
2022-10-12T13:11:25.702Z,101640.09
2022-10-12T13:14:17.251Z,101646.75
2022-10-12T13:17:31.780Z,101644.19
2022-10-12T13:19:57.561Z,101633.03
2022-10-12T13:22:31.380Z,101641.97
2022-10-12T13:25:02.759Z,101637.69
2022-10-12T13:27:35.615Z,101654.00
2022-10-12T13:30:29.081Z,101653.41
2022-10-12T13:33:04.405Z,101652.78
2022-10-12T13:35:44.070Z,101641.56
2022-10-12T13:38:14.383Z,101640.13
2022-10-12T13:40:51.590Z,101645.72
2022-10-12T13:43:36.990Z,101642.22
2022-10-12T13:46:05.359Z,101644.72
2022-10-12T13:48:59.311Z,101633.91
2022-10-12T13:51:23.978Z,101634.38
2022-10-12T13:53:51.589Z,101637.56
2022-10-12T13:56:21.580Z,101631.91
2022-10-12T13:58:58.342Z,101631.06
2022-10-12T14:01:25.993Z,101622.09
2022-10-12T14:04:02.201Z,101623.44
2022-10-12T14:06:33.427Z,101627.28
2022-10-12T14:09:15.379Z,101635.25
2022-10-12T14:11:43.273Z,101636.72
2022-10-12T14:14:20.712Z,101643.47
2022-10-12T14:16:50.336Z,101630.34
2022-10-12T14:19:31.886Z,101636.34
2022-10-12T14:22:00.217Z,101637.00
2022-10-12T14:24:27.536Z,101630.59
2022-10-12T14:26:58.447Z,101631.59
2022-10-12T14:29:32.383Z,101635.00
2022-10-12T14:32:02.913Z,101617.44
2022-10-12T14:34:47.671Z,101622.41
2022-10-12T14:37:15.048Z,101619.50
2022-10-12T14:39:50.195Z,101614.44
2022-10-12T14:42:22.251Z,101610.84
2022-10-12T14:44:50.699Z,101604.59
2022-10-12T14:47:33.936Z,101606.19
2022-10-12T14:50:07.578Z,101607.09
2022-10-12T14:52:43.284Z,101604.22
2022-10-12T14:55:16.030Z,101613.31
2022-10-12T14:57:43.849Z,101606.94
2022-10-12T15:00:22.231Z,101605.78
2022-10-12T15:02:49.680Z,101610.41
2022-10-12T15:05:19.341Z,101602.34
2022-10-12T15:07:46.999Z,101599.16
2022-10-12T15:10:15.266Z,101601.94
2022-10-12T15:12:43.770Z,101598.53
2022-10-12T15:15:34.141Z,101586.94
2022-10-12T15:18:01.545Z,101590.53
2022-10-12T15:20:29.846Z,101581.69
2022-10-12T15:22:58.303Z,101576.94
2022-10-12T15:25:39.480Z,101569.94
2022-10-12T15:28:07.049Z,101567.59
2022-10-12T15:30:34.886Z,101563.97
2022-10-12T15:33:05.146Z,101563.00
2022-10-12T15:35:35.064Z,101560.59
2022-10-12T15:38:02.763Z,101566.19
2022-10-12T15:40:31.575Z,101557.22
2022-10-12T15:43:00.175Z,101556.91
2022-10-12T15:45:31.841Z,101558.19
2022-10-12T15:48:00.107Z,101568.81
2022-10-12T15:50:30.033Z,101561.72
2022-10-12T15:52:57.540Z,101565.84
2022-10-12T15:55:26.927Z,101558.41
2022-10-12T15:57:54.583Z,101561.47
2022-10-12T16:00:26.038Z,101550.84
2022-10-12T16:02:54.537Z,101545.84
2022-10-12T16:05:33.488Z,101538.78
2022-10-12T16:08:01.759Z,101538.34
2022-10-12T16:10:34.463Z,101530.81
2022-10-12T16:13:04.895Z,101516.47
2022-10-12T16:15:33.636Z,101525.91
2022-10-12T16:18:02.007Z,101529.28
2022-10-12T16:20:31.268Z,101529.06
2022-10-12T16:22:59.999Z,101534.31
2022-10-12T16:25:27.943Z,101529.88
2022-10-12T16:27:56.709Z,101542.19
2022-10-12T16:30:25.084Z,101538.00
2022-10-12T16:32:52.758Z,101534.66
2022-10-12T16:35:20.264Z,101530.25
2022-10-12T16:37:47.651Z,101532.97
2022-10-12T16:40:15.930Z,101543.69
2022-10-12T16:42:43.340Z,101542.38
2022-10-12T16:45:11.330Z,101551.91
2022-10-12T16:47:42.561Z,101556.91
2022-10-12T16:50:10.535Z,101560.41
2022-10-12T16:52:37.846Z,101555.88
2022-10-12T16:55:05.814Z,101561.81
2022-10-12T16:57:33.128Z,101552.97
2022-10-12T17:00:02.299Z,101558.56
2022-10-12T17:02:29.550Z,101556.34
2022-10-12T17:04:56.855Z,101549.25
2022-10-12T17:07:24.395Z,101545.38
2022-10-12T17:09:51.617Z,101555.78
2022-10-12T17:12:19.039Z,101541.56
2022-10-12T17:14:46.565Z,101544.00
2022-10-12T17:17:13.876Z,101546.81
2022-10-12T17:19:41.240Z,101548.19
2022-10-12T17:22:10.257Z,101554.00
2022-10-12T17:24:39.440Z,101555.75
2022-10-12T17:27:08.295Z,101555.06
2022-10-12T17:29:42.246Z,101556.44
2022-10-12T17:32:10.450Z,101544.47
2022-10-12T17:34:42.786Z,101546.88
2022-10-12T17:37:13.705Z,101554.56
2022-10-12T17:39:46.008Z,101559.47
2022-10-12T17:42:13.880Z,101569.91
2022-10-12T17:44:41.421Z,101569.31
2022-10-12T17:47:08.935Z,101566.34
2022-10-12T17:49:36.238Z,101573.94
2022-10-12T17:52:04.320Z,101577.09
2022-10-12T17:54:32.758Z,101581.22
2022-10-12T17:57:00.166Z,101575.72
2022-10-12T17:59:27.458Z,101574.47
2022-10-12T18:01:54.769Z,101567.00
2022-10-12T18:04:22.176Z,101563.47
2022-10-12T18:06:49.544Z,101561.59
2022-10-12T18:09:16.866Z,101565.38
2022-10-12T18:11:44.497Z,101571.03
2022-10-12T18:14:13.105Z,101569.44
2022-10-12T18:16:40.601Z,101569.03
2022-10-12T18:19:10.281Z,101567.38
2022-10-12T18:21:38.769Z,101569.72
2022-10-12T18:24:16.162Z,101572.00
2022-10-12T18:26:46.187Z,101579.22
2022-10-12T18:29:16.137Z,101576.75
2022-10-12T18:31:44.644Z,101577.44
2022-10-12T18:34:12.143Z,101577.94
2022-10-12T18:36:42.806Z,101567.44
2022-10-12T18:39:10.122Z,101582.88
2022-10-12T18:41:37.525Z,101573.34
2022-10-12T18:44:04.960Z,101579.91
2022-10-12T18:46:34.394Z,101579.75
2022-10-12T18:49:04.956Z,101577.66
2022-10-12T18:51:38.266Z,101580.72
2022-10-12T18:54:06.439Z,101587.44
2022-10-12T18:56:36.064Z,101590.56
2022-10-12T18:59:04.599Z,101596.00
2022-10-12T19:01:34.124Z,101598.44
2022-10-12T19:04:02.105Z,101596.13
2022-10-12T19:06:34.666Z,101589.94
2022-10-12T19:09:02.518Z,101589.16
2022-10-12T19:11:31.087Z,101584.72
2022-10-12T19:14:01.389Z,101579.13
2022-10-12T19:16:28.745Z,101575.53
2022-10-12T19:18:57.318Z,101582.88
2022-10-12T19:21:24.566Z,101580.78
2022-10-12T19:23:51.870Z,101589.72
2022-10-12T19:26:23.266Z,101596.69
2022-10-12T19:28:51.497Z,101591.25
2022-10-12T19:31:22.063Z,101586.16
2022-10-12T19:33:49.809Z,101585.81
2022-10-12T19:36:18.378Z,101585.31
2022-10-12T19:38:48.657Z,101588.81
2022-10-12T19:41:16.340Z,101588.94
2022-10-12T19:43:43.583Z,101588.81
2022-10-12T19:46:11.939Z,101588.31
2022-10-12T19:48:39.722Z,101581.44
2022-10-12T19:51:10.465Z,101576.69
2022-10-12T19:53:38.919Z,101576.22
2022-10-12T19:56:08.894Z,101578.22
2022-10-12T19:58:36.178Z,101578.56
2022-10-12T20:01:06.569Z,101581.69
2022-10-12T20:03:34.983Z,101579.50
2022-10-12T20:06:06.041Z,101588.03
2022-10-12T20:08:33.537Z,101580.50
2022-10-12T20:11:00.827Z,101586.66
2022-10-12T20:13:28.028Z,101578.78
2022-10-12T20:15:56.238Z,101581.47
2022-10-12T20:18:24.258Z,101581.34
2022-10-12T20:20:51.834Z,101588.13
2022-10-12T20:23:19.442Z,101577.72
2022-10-12T20:25:49.676Z,101576.44
2022-10-12T20:28:17.080Z,101580.91
2022-10-12T20:30:44.248Z,101574.88
2022-10-12T20:33:11.633Z,101573.25
2022-10-12T20:35:47.096Z,101571.94
2022-10-12T20:38:14.638Z,101572.34
2022-10-12T20:40:42.032Z,101578.25
2022-10-12T20:43:09.709Z,101567.44
2022-10-12T20:45:37.872Z,101576.94
2022-10-12T20:48:07.061Z,101575.78
2022-10-12T20:50:34.540Z,101568.13
2022-10-12T20:53:02.232Z,101577.75
2022-10-12T20:55:29.442Z,101584.97
2022-10-12T20:57:56.694Z,101581.41
2022-10-12T21:00:23.927Z,101582.22
2022-10-12T21:02:51.125Z,101589.91
2022-10-12T21:05:18.406Z,101592.50
2022-10-12T21:07:46.550Z,101591.53
2022-10-12T21:10:13.922Z,101582.34
2022-10-12T21:12:41.199Z,101581.50
2022-10-12T21:15:09.327Z,101573.84
2022-10-12T21:17:36.634Z,101570.03
2022-10-12T21:20:04.246Z,101567.66
2022-10-12T21:22:31.498Z,101569.47
2022-10-12T21:24:58.782Z,101561.09
2022-10-12T21:27:25.971Z,101571.06
2022-10-12T21:29:53.216Z,101567.31
2022-10-12T21:32:20.979Z,101572.19
2022-10-12T21:34:49.718Z,101574.28
2022-10-12T21:37:16.963Z,101591.13
2022-10-12T21:39:44.383Z,101576.63
2022-10-12T21:42:11.737Z,101574.63
2022-10-12T21:44:38.933Z,101578.03
2022-10-12T21:47:06.291Z,101573.44
2022-10-12T21:49:33.599Z,101571.59
2022-10-12T21:52:00.880Z,101569.69
2022-10-12T21:54:28.189Z,101562.63
2022-10-12T21:56:55.403Z,101567.41
2022-10-12T21:59:23.709Z,101566.38
2022-10-12T22:01:50.927Z,101556.84
2022-10-12T22:04:18.245Z,101558.03
2022-10-12T22:06:45.529Z,101555.88
2022-10-12T22:09:16.577Z,101552.75
2022-10-12T22:11:44.030Z,101549.63
2022-10-12T22:14:14.607Z,101557.88
2022-10-12T22:16:43.226Z,101551.03
2022-10-12T22:19:14.424Z,101548.84
2022-10-12T22:21:41.975Z,101547.03
2022-10-12T22:24:09.265Z,101547.03
2022-10-12T22:26:36.586Z,101543.91
2022-10-12T22:29:06.168Z,101551.72
2022-10-12T22:31:33.880Z,101538.22
2022-10-12T22:34:01.118Z,101539.53
2022-10-12T22:36:31.093Z,101551.31
2022-10-12T22:38:59.395Z,101542.50
2022-10-12T22:41:26.766Z,101548.84
2022-10-12T22:43:55.297Z,101536.75
2022-10-12T22:46:24.169Z,101535.56
2022-10-12T22:48:52.120Z,101535.03
2022-10-12T22:51:24.695Z,101540.78
2022-10-12T22:53:51.978Z,101550.81
2022-10-12T22:56:19.455Z,101549.63
2022-10-12T22:58:49.093Z,101547.78
2022-10-12T23:01:17.841Z,101547.72
2022-10-12T23:03:45.926Z,101545.03
2022-10-12T23:06:16.055Z,101545.84
2022-10-12T23:08:43.798Z,101537.22
2022-10-12T23:11:15.966Z,101536.75
2022-10-12T23:13:43.731Z,101534.59
2022-10-12T23:16:13.240Z,101537.28
2022-10-12T23:18:41.269Z,101542.31
2022-10-12T23:21:14.183Z,101543.78
2022-10-12T23:23:42.124Z,101533.63
2022-10-12T23:26:15.507Z,101540.16
2022-10-12T23:28:42.965Z,101528.03
2022-10-12T23:31:18.471Z,101519.00
2022-10-12T23:33:46.069Z,101520.19
2022-10-12T23:36:16.101Z,101522.75
2022-10-12T23:38:44.717Z,101517.34
2022-10-12T23:41:13.039Z,101513.72
2022-10-12T23:43:40.973Z,101514.97
2022-10-12T23:46:08.338Z,101514.75
2022-10-12T23:48:35.892Z,101517.88
2022-10-12T23:51:06.310Z,101507.25
2022-10-12T23:53:33.899Z,101510.09
2022-10-12T23:56:01.172Z,101512.53
2022-10-12T23:58:28.589Z,101511.25
